Time;durP1;ratioP1;P1;durP2;ratioP2;P2;SDS_P1;SDS_P2;PMS_P1;PMS_P2;Temp;Humidity;BMP_temperature;BMP_pressure;BME280_temperature;BME280_humidity;BME280_pressure;Samples;Min_cycle;Max_cycle;Signal;HPM_P1;HPM_P2
2024/01/23 00:00:45;;;;;;;;;;;21.30;30.80;;;;;;5072729;28;20320;-58
2024/01/23 00:03:12;;;;;;;;;;;21.30;30.80;;;;;;5073134;28;19987;-58
2024/01/23 00:05:39;;;;;;;;;;;21.30;30.80;;;;;;5073130;28;19958;-58
2024/01/23 00:08:07;;;;;;;;;;;21.30;30.80;;;;;;5072733;28;19932;-58
2024/01/23 00:10:33;;;;;;;;;;;21.30;30.70;;;;;;5073404;28;19924;-59
2024/01/23 00:13:00;;;;;;;;;;;21.30;30.80;;;;;;5072712;28;19959;-58
2024/01/23 00:15:27;;;;;;;;;;;21.30;30.80;;;;;;5072451;28;20385;-58
2024/01/23 00:17:54;;;;;;;;;;;21.30;30.80;;;;;;5072579;28;19980;-58
2024/01/23 00:20:21;;;;;;;;;;;21.30;30.80;;;;;;5072597;28;19935;-58
2024/01/23 00:22:48;;;;;;;;;;;21.30;30.80;;;;;;5073101;28;19978;-58
2024/01/23 00:25:15;;;;;;;;;;;21.30;30.80;;;;;;5073020;28;19931;-58
2024/01/23 00:27:42;;;;;;;;;;;21.40;30.90;;;;;;5072795;28;19924;-58
2024/01/23 00:30:10;;;;;;;;;;;21.40;30.90;;;;;;5072679;28;20385;-58
2024/01/23 00:32:37;;;;;;;;;;;21.40;30.90;;;;;;5072377;28;19925;-59
2024/01/23 00:35:04;;;;;;;;;;;21.30;30.80;;;;;;5072912;28;20259;-58
2024/01/23 00:37:31;;;;;;;;;;;21.30;30.90;;;;;;5072766;28;20023;-58
2024/01/23 00:40:01;;;;;;;;;;;21.30;30.90;;;;;;5072263;28;19929;-58
2024/01/23 00:42:27;;;;;;;;;;;21.30;30.90;;;;;;5072489;28;19924;-58
2024/01/23 00:44:55;;;;;;;;;;;21.30;30.80;;;;;;5072612;28;20026;-58
2024/01/23 00:47:21;;;;;;;;;;;21.30;30.80;;;;;;5072026;28;19924;-58
2024/01/23 00:49:48;;;;;;;;;;;21.30;30.80;;;;;;5071975;28;20393;-57
2024/01/23 00:52:15;;;;;;;;;;;21.30;30.80;;;;;;5072421;28;19925;-57
2024/01/23 00:54:42;;;;;;;;;;;21.30;30.80;;;;;;5073177;28;19970;-58
2024/01/23 00:57:09;;;;;;;;;;;21.30;30.80;;;;;;5076377;28;19928;-58
2024/01/23 00:59:36;;;;;;;;;;;21.30;30.80;;;;;;5076215;28;20381;-58
2024/01/23 01:02:03;;;;;;;;;;;21.30;30.80;;;;;;5075990;28;20015;-58
2024/01/23 01:04:30;;;;;;;;;;;21.20;30.70;;;;;;5058728;28;20339;-58
2024/01/23 01:06:57;;;;;;;;;;;21.30;30.80;;;;;;5076019;28;19925;-58
2024/01/23 01:09:25;;;;;;;;;;;21.30;30.80;;;;;;5076074;28;20030;-58
2024/01/23 01:11:52;;;;;;;;;;;21.30;30.70;;;;;;5075747;28;20377;-58
2024/01/23 01:14:19;;;;;;;;;;;21.30;30.70;;;;;;5076032;28;20027;-58
2024/01/23 01:16:46;;;;;;;;;;;21.30;30.70;;;;;;5076178;28;20018;-58
2024/01/23 01:19:13;;;;;;;;;;;21.20;30.70;;;;;;5075664;28;19925;-58
2024/01/23 01:21:40;;;;;;;;;;;21.30;30.80;;;;;;5075941;28;19935;-58
2024/01/23 01:24:08;;;;;;;;;;;21.30;30.80;;;;;;5075736;28;19924;-58
2024/01/23 01:26:37;;;;;;;;;;;21.30;30.80;;;;;;5075937;28;19955;-58
2024/01/23 01:29:04;;;;;;;;;;;21.30;30.80;;;;;;5075983;28;20381;-58
2024/01/23 01:31:31;;;;;;;;;;;21.30;30.80;;;;;;5075120;28;19932;-58
2024/01/23 01:33:58;;;;;;;;;;;21.30;30.80;;;;;;5075540;28;19931;-58
2024/01/23 01:36:25;;;;;;;;;;;21.30;30.80;;;;;;5075483;28;20340;-57
2024/01/23 01:38:52;;;;;;;;;;;21.30;30.90;;;;;;5075290;28;20200;-58
2024/01/23 01:41:19;;;;;;;;;;;21.30;30.80;;;;;;5074292;28;19924;-58
2024/01/23 01:43:46;;;;;;;;;;;21.30;30.80;;;;;;5075280;28;20377;-58
2024/01/23 01:46:23;;;;;;;;;;;21.20;30.70;;;;;;5075384;28;20011;-58
2024/01/23 01:48:51;;;;;;;;;;;21.20;30.80;;;;;;5075115;28;19982;-58
2024/01/23 01:51:26;;;;;;;;;;;21.20;30.80;;;;;;5075621;28;20285;-58
2024/01/23 01:53:53;;;;;;;;;;;21.20;30.80;;;;;;5075083;28;19925;-58
2024/01/23 01:56:22;;;;;;;;;;;21.20;30.80;;;;;;5075153;28;19975;-58
2024/01/23 01:58:50;;;;;;;;;;;21.20;30.70;;;;;;5075104;28;19924;-57
2024/01/23 02:01:17;;;;;;;;;;;21.20;30.70;;;;;;5075400;28;19925;-58
2024/01/23 02:03:44;;;;;;;;;;;21.20;30.80;;;;;;5075257;28;20367;-58
2024/01/23 02:06:11;;;;;;;;;;;21.20;30.70;;;;;;5075156;28;20015;-58
2024/01/23 02:08:38;;;;;;;;;;;21.20;30.80;;;;;;5075120;28;20270;-58
2024/01/23 02:11:05;;;;;;;;;;;21.20;30.70;;;;;;5075259;28;19999;-57
2024/01/23 02:13:32;;;;;;;;;;;21.20;30.70;;;;;;5074706;28;20391;-58
2024/01/23 02:15:59;;;;;;;;;;;21.20;30.70;;;;;;5075079;28;20007;-58
2024/01/23 02:18:26;;;;;;;;;;;21.20;30.70;;;;;;5074458;28;19925;-58
2024/01/23 02:20:53;;;;;;;;;;;21.20;30.70;;;;;;5073540;28;19958;-60
2024/01/23 02:23:21;;;;;;;;;;;21.20;30.70;;;;;;5074704;28;20048;-58
2024/01/23 02:25:47;;;;;;;;;;;21.20;30.70;;;;;;5074642;28;19928;-58
2024/01/23 02:28:15;;;;;;;;;;;21.20;30.70;;;;;;5074733;28;19947;-58
2024/01/23 02:30:42;;;;;;;;;;;21.20;30.70;;;;;;5074454;28;19979;-58
2024/01/23 02:33:09;;;;;;;;;;;21.20;30.70;;;;;;5074329;28;19925;-57
2024/01/23 02:35:37;;;;;;;;;;;21.20;30.60;;;;;;5073127;28;19924;-58
2024/01/23 02:38:04;;;;;;;;;;;21.20;30.70;;;;;;5074408;28;19971;-58
2024/01/23 02:40:31;;;;;;;;;;;21.20;30.60;;;;;;5074655;28;20317;-58
2024/01/23 02:42:58;;;;;;;;;;;21.20;30.70;;;;;;5074689;28;19971;-59
2024/01/23 02:45:25;;;;;;;;;;;21.20;30.70;;;;;;5074186;28;19928;-58
2024/01/23 02:47:52;;;;;;;;;;;21.20;30.70;;;;;;5074011;28;19925;-58
2024/01/23 02:50:19;;;;;;;;;;;21.20;30.70;;;;;;5074039;28;20415;-58
2024/01/23 02:52:48;;;;;;;;;;;21.20;30.70;;;;;;5073090;28;20344;-58
2024/01/23 02:55:15;;;;;;;;;;;21.20;30.70;;;;;;5073941;28;19979;-58
2024/01/23 02:57:42;;;;;;;;;;;21.20;30.70;;;;;;5073764;28;20401;-57
2024/01/23 03:00:10;;;;;;;;;;;21.20;30.70;;;;;;5073778;28;19924;-58
2024/01/23 03:02:37;;;;;;;;;;;21.20;30.70;;;;;;5073696;28;19997;-57
2024/01/23 03:05:04;;;;;;;;;;;21.20;30.70;;;;;;5073791;28;20392;-57
2024/01/23 03:07:31;;;;;;;;;;;21.20;30.80;;;;;;5073685;28;19951;-57
2024/01/23 03:09:58;;;;;;;;;;;21.20;30.70;;;;;;5073677;28;20365;-58
2024/01/23 03:12:26;;;;;;;;;;;21.20;30.70;;;;;;5073133;28;20378;-58
2024/01/23 03:14:54;;;;;;;;;;;21.20;30.70;;;;;;5073624;28;20460;-58
2024/01/23 03:17:21;;;;;;;;;;;21.20;30.70;;;;;;5072824;28;19925;-58
2024/01/23 03:19:48;;;;;;;;;;;21.20;30.70;;;;;;5072904;28;19924;-58
2024/01/23 03:22:15;;;;;;;;;;;21.20;30.70;;;;;;5066330;28;19925;-58
2024/01/23 03:24:42;;;;;;;;;;;21.20;30.70;;;;;;5053762;28;19929;-58
2024/01/23 03:27:10;;;;;;;;;;;21.20;30.80;;;;;;5053031;28;19938;-58
2024/01/23 03:29:41;;;;;;;;;;;21.20;30.70;;;;;;5053274;28;19925;-57
2024/01/23 03:32:08;;;;;;;;;;;21.20;30.70;;;;;;5053186;28;20412;-58
2024/01/23 03:34:36;;;;;;;;;;;21.10;30.70;;;;;;5053240;28;20384;-58
2024/01/23 03:37:03;;;;;;;;;;;21.10;30.70;;;;;;5035325;28;19931;-58
2024/01/23 03:39:30;;;;;;;;;;;21.10;30.70;;;;;;5053112;28;20402;-58
2024/01/23 03:41:57;;;;;;;;;;;21.10;30.70;;;;;;5053020;28;20435;-58
2024/01/23 03:44:24;;;;;;;;;;;21.10;30.70;;;;;;5053476;28;20302;-58
2024/01/23 03:46:52;;;;;;;;;;;21.20;30.70;;;;;;5053366;28;19995;-58
2024/01/23 03:49:19;;;;;;;;;;;21.10;30.70;;;;;;5053346;28;19967;-58
2024/01/23 03:51:46;;;;;;;;;;;21.10;30.70;;;;;;5052783;28;19924;-58
2024/01/23 03:54:14;;;;;;;;;;;21.20;30.80;;;;;;5053267;28;19947;-58
2024/01/23 03:56:41;;;;;;;;;;;21.20;30.80;;;;;;5053252;28;19932;-58
2024/01/23 03:59:08;;;;;;;;;;;21.20;30.80;;;;;;5052964;28;19931;-58
2024/01/23 04:01:35;;;;;;;;;;;21.20;30.80;;;;;;5053184;28;19972;-57
2024/01/23 04:04:02;;;;;;;;;;;21.20;30.70;;;;;;5052877;28;20231;-58
2024/01/23 04:06:29;;;;;;;;;;;21.20;30.70;;;;;;5053297;28;19946;-58
2024/01/23 04:08:57;;;;;;;;;;;21.20;30.80;;;;;;5052536;28;19931;-58
2024/01/23 04:11:25;;;;;;;;;;;21.10;30.80;;;;;;5052656;28;19929;-58
2024/01/23 04:13:52;;;;;;;;;;;21.10;30.80;;;;;;5052730;28;19929;-58
2024/01/23 04:16:18;;;;;;;;;;;21.10;30.80;;;;;;5053164;28;19964;-58
2024/01/23 04:18:45;;;;;;;;;;;21.10;30.80;;;;;;5052606;28;19970;-58
2024/01/23 04:21:16;;;;;;;;;;;21.10;30.80;;;;;;5052741;28;19925;-59
2024/01/23 04:23:43;;;;;;;;;;;21.10;30.80;;;;;;5052585;28;19932;-57
2024/01/23 04:26:11;;;;;;;;;;;21.10;30.80;;;;;;5056807;28;20401;-58
2024/01/23 04:28:38;;;;;;;;;;;21.10;30.80;;;;;;5052907;28;19971;-58
2024/01/23 04:31:05;;;;;;;;;;;21.10;30.70;;;;;;5038539;28;20298;-58
2024/01/23 04:33:32;;;;;;;;;;;21.10;30.70;;;;;;5056412;28;20412;-58
2024/01/23 04:35:59;;;;;;;;;;;21.10;30.70;;;;;;5056654;28;19931;-58
2024/01/23 04:38:26;;;;;;;;;;;21.10;30.70;;;;;;5056178;28;19925;-58
2024/01/23 04:40:53;;;;;;;;;;;21.10;30.50;;;;;;5055333;28;20095;-58
2024/01/23 04:43:21;;;;;;;;;;;21.10;30.40;;;;;;5056433;28;19947;-58
2024/01/23 04:45:48;;;;;;;;;;;21.10;30.40;;;;;;5056537;28;19951;-58
2024/01/23 04:48:15;;;;;;;;;;;21.10;30.30;;;;;;5056143;28;20362;-58
2024/01/23 04:50:42;;;;;;;;;;;21.10;30.20;;;;;;5056941;28;19952;-57
2024/01/23 04:53:09;;;;;;;;;;;21.10;30.20;;;;;;5056089;28;20011;-57
2024/01/23 04:55:36;;;;;;;;;;;21.10;30.20;;;;;;5056495;28;19964;-58
2024/01/23 04:58:03;;;;;;;;;;;21.00;30.10;;;;;;5057812;28;19972;-58
2024/01/23 05:00:29;;;;;;;;;;;21.00;30.10;;;;;;5057901;28;19946;-57
2024/01/23 05:02:56;;;;;;;;;;;21.10;30.20;;;;;;5076519;28;19924;-58
2024/01/23 05:05:23;;;;;;;;;;;21.10;30.10;;;;;;5075879;28;19924;-58
2024/01/23 05:07:50;;;;;;;;;;;21.10;30.10;;;;;;5076275;28;19928;-58
2024/01/23 05:10:17;;;;;;;;;;;21.10;30.10;;;;;;5071599;28;20081;-57
2024/01/23 05:12:44;;;;;;;;;;;21.10;30.70;;;;;;5058535;28;20006;-57
2024/01/23 05:15:11;;;;;;;;;;;21.10;30.10;;;;;;5063384;28;19991;-58
2024/01/23 05:17:38;;;;;;;;;;;21.10;30.10;;;;;;5071342;28;19928;-58
2024/01/23 05:20:06;;;;;;;;;;;21.10;30.10;;;;;;5071056;28;19928;-58
2024/01/23 05:22:33;;;;;;;;;;;21.10;30.10;;;;;;5075873;28;20019;-58
2024/01/23 05:24:59;;;;;;;;;;;21.10;30.10;;;;;;5075295;28;19967;-58
2024/01/23 05:27:26;;;;;;;;;;;21.10;30.20;;;;;;5063928;28;19959;-58
2024/01/23 05:29:53;;;;;;;;;;;21.10;30.20;;;;;;5067774;28;19935;-57
2024/01/23 05:32:20;;;;;;;;;;;21.10;30.20;;;;;;5075209;28;19931;-57
2024/01/23 05:34:47;;;;;;;;;;;21.10;30.20;;;;;;5075289;28;19995;-57
2024/01/23 05:37:15;;;;;;;;;;;21.10;30.20;;;;;;5075760;28;20007;-58
2024/01/23 05:39:41;;;;;;;;;;;21.10;30.20;;;;;;5075667;28;20335;-58
2024/01/23 05:42:08;;;;;;;;;;;21.10;30.20;;;;;;5075007;28;19924;-57
2024/01/23 05:44:35;;;;;;;;;;;21.10;30.20;;;;;;5075681;28;19925;-58
2024/01/23 05:47:02;;;;;;;;;;;21.20;30.30;;;;;;5075377;28;20023;-58
2024/01/23 05:49:29;;;;;;;;;;;21.10;30.20;;;;;;5074888;28;19924;-58
2024/01/23 05:51:56;;;;;;;;;;;21.10;30.20;;;;;;5074887;28;19924;-57
2024/01/23 05:54:23;;;;;;;;;;;21.10;30.20;;;;;;5075030;28;19924;-57
2024/01/23 05:56:50;;;;;;;;;;;21.20;30.30;;;;;;5074780;28;19970;-57
2024/01/23 05:59:18;;;;;;;;;;;21.20;30.30;;;;;;5072703;28;19924;-57
2024/01/23 06:01:47;;;;;;;;;;;21.10;30.30;;;;;;5067748;28;19924;-59
2024/01/23 06:04:13;;;;;;;;;;;21.20;30.30;;;;;;5073991;28;20011;-57
2024/01/23 06:06:41;;;;;;;;;;;21.20;30.30;;;;;;5073573;28;19924;-58
2024/01/23 06:09:09;;;;;;;;;;;21.20;30.30;;;;;;5074425;28;20381;-57
2024/01/23 06:11:39;;;;;;;;;;;21.20;30.30;;;;;;5073438;28;19959;-59
2024/01/23 06:14:07;;;;;;;;;;;21.20;30.30;;;;;;5072577;28;19928;-57
2024/01/23 06:16:34;;;;;;;;;;;21.20;30.30;;;;;;5065072;28;19951;-58
2024/01/23 06:19:01;;;;;;;;;;;21.20;30.30;;;;;;5071943;28;20398;-57
2024/01/23 06:21:28;;;;;;;;;;;21.20;30.30;;;;;;5070621;28;19940;-57
2024/01/23 06:23:55;;;;;;;;;;;21.20;30.40;;;;;;5065156;28;19962;-59
2024/01/23 06:26:22;;;;;;;;;;;21.30;30.50;;;;;;5066373;28;19925;-58
2024/01/23 06:28:49;;;;;;;;;;;21.30;30.60;;;;;;5063088;28;19979;-58
2024/01/23 06:31:16;;;;;;;;;;;21.30;30.70;;;;;;5062955;28;19944;-58
2024/01/23 06:33:43;;;;;;;;;;;21.30;30.80;;;;;;5059549;28;19947;-60
2024/01/23 06:36:10;;;;;;;;;;;21.30;30.90;;;;;;5059684;28;20374;-57
2024/01/23 06:38:37;;;;;;;;;;;21.30;31.00;;;;;;5056225;28;19978;-58
2024/01/23 06:41:05;;;;;;;;;;;21.40;31.10;;;;;;5060998;28;19944;-58
2024/01/23 06:43:32;;;;;;;;;;;21.40;31.30;;;;;;5063041;28;19933;-58
2024/01/23 06:45:59;;;;;;;;;;;21.40;31.50;;;;;;5044767;28;20441;-59
2024/01/23 06:48:26;;;;;;;;;;;21.50;31.50;;;;;;5060359;28;20003;-59
2024/01/23 06:50:53;;;;;;;;;;;21.50;31.50;;;;;;5065119;28;19950;-57
2024/01/23 06:53:20;;;;;;;;;;;21.60;31.40;;;;;;5056373;28;19971;-58
2024/01/23 06:55:47;;;;;;;;;;;21.60;31.50;;;;;;5064278;28;19954;-59
2024/01/23 06:58:15;;;;;;;;;;;21.60;31.50;;;;;;5058200;28;19932;-56
2024/01/23 07:00:42;;;;;;;;;;;21.60;31.70;;;;;;5059731;28;19932;-59
2024/01/23 07:03:09;;;;;;;;;;;21.70;31.70;;;;;;5060150;28;19939;-63
2024/01/23 07:05:36;;;;;;;;;;;21.70;31.30;;;;;;5057359;28;19990;-59
2024/01/23 07:08:03;;;;;;;;;;;21.70;31.80;;;;;;5060472;28;20003;-60
2024/01/23 07:10:30;;;;;;;;;;;21.80;31.40;;;;;;5061958;28;19935;-64
2024/01/23 07:12:57;;;;;;;;;;;21.90;31.40;;;;;;5057208;28;19932;-62
2024/01/23 07:15:24;;;;;;;;;;;21.90;31.40;;;;;;5055988;28;19932;-61
2024/01/23 07:17:53;;;;;;;;;;;21.90;31.30;;;;;;5053227;28;19935;-59
2024/01/23 07:20:20;;;;;;;;;;;21.90;31.30;;;;;;5057868;28;19932;-60
2024/01/23 07:22:47;;;;;;;;;;;21.90;31.40;;;;;;5061486;28;19930;-64
2024/01/23 07:25:14;;;;;;;;;;;22.00;31.40;;;;;;5041570;28;19931;-62
2024/01/23 07:27:41;;;;;;;;;;;22.00;31.40;;;;;;5062832;28;20297;-63
2024/01/23 07:30:09;;;;;;;;;;;22.00;31.40;;;;;;5054128;28;19939;-60
2024/01/23 07:32:36;;;;;;;;;;;22.00;31.50;;;;;;5052164;28;19932;-61
2024/01/23 07:35:03;;;;;;;;;;;22.00;31.50;;;;;;5056317;28;19942;-60
2024/01/23 07:37:30;;;;;;;;;;;22.00;31.40;;;;;;5054434;28;20013;-62
2024/01/23 07:39:58;;;;;;;;;;;22.10;31.50;;;;;;5038879;28;19928;-59
2024/01/23 07:42:25;;;;;;;;;;;22.10;31.50;;;;;;5052989;28;19964;-61
2024/01/23 07:44:52;;;;;;;;;;;22.20;31.50;;;;;;5063338;28;19933;-62
2024/01/23 07:47:19;;;;;;;;;;;22.20;31.50;;;;;;5051502;28;19928;-60
2024/01/23 07:49:46;;;;;;;;;;;22.20;31.50;;;;;;5056351;28;20030;-60
2024/01/23 07:52:19;;;;;;;;;;;22.20;31.50;;;;;;5060248;28;19933;-60
2024/01/23 07:54:47;;;;;;;;;;;22.20;31.50;;;;;;5055086;28;19933;-59
2024/01/23 07:57:14;;;;;;;;;;;22.20;31.50;;;;;;5056191;28;20003;-60
2024/01/23 07:59:41;;;;;;;;;;;22.20;31.50;;;;;;5056716;28;19933;-63
2024/01/23 08:02:08;;;;;;;;;;;22.20;31.50;;;;;;5057315;28;19932;-59
2024/01/23 08:04:35;;;;;;;;;;;22.30;31.50;;;;;;5055538;28;19954;-63
2024/01/23 08:07:02;;;;;;;;;;;22.30;31.60;;;;;;5053253;28;19929;-59
2024/01/23 08:09:29;;;;;;;;;;;22.30;31.60;;;;;;5053907;28;20386;-58
2024/01/23 08:11:56;;;;;;;;;;;22.30;31.50;;;;;;5055365;28;20009;-58
2024/01/23 08:14:23;;;;;;;;;;;22.40;31.60;;;;;;5053781;28;19968;-57
2024/01/23 08:16:50;;;;;;;;;;;22.50;31.70;;;;;;5052302;28;20607;-56
2024/01/23 08:19:17;;;;;;;;;;;22.50;31.80;;;;;;5056663;28;20460;-57
2024/01/23 08:21:45;;;;;;;;;;;22.50;32.00;;;;;;5062935;28;19932;-55
2024/01/23 08:24:12;;;;;;;;;;;22.60;32.10;;;;;;5059426;28;20380;-57
2024/01/23 08:26:39;;;;;;;;;;;22.60;32.20;;;;;;5059212;28;20013;-59
2024/01/23 08:29:09;;;;;;;;;;;22.60;32.20;;;;;;5056037;28;20595;-56
2024/01/23 08:31:36;;;;;;;;;;;22.60;32.20;;;;;;5055092;28;19937;-59
2024/01/23 08:34:03;;;;;;;;;;;22.60;32.00;;;;;;5058659;28;19928;-59
2024/01/23 08:36:30;;;;;;;;;;;22.70;31.90;;;;;;5057918;28;20438;-59
2024/01/23 08:38:57;;;;;;;;;;;22.70;31.90;;;;;;5058768;28;19929;-59
2024/01/23 08:41:24;;;;;;;;;;;22.70;31.90;;;;;;5054731;28;19932;-60
2024/01/23 08:43:51;;;;;;;;;;;22.70;31.90;;;;;;5059238;28;19932;-57
2024/01/23 08:46:20;;;;;;;;;;;22.70;32.20;;;;;;5060320;28;20237;-58
2024/01/23 08:48:47;;;;;;;;;;;22.80;32.30;;;;;;5058557;28;19924;-58
2024/01/23 08:51:14;;;;;;;;;;;22.90;32.40;;;;;;5036103;28;20373;-59
2024/01/23 08:53:42;;;;;;;;;;;23.00;32.50;;;;;;5037488;28;19932;-58
2024/01/23 08:56:10;;;;;;;;;;;23.00;32.50;;;;;;5057998;28;19931;-59
2024/01/23 08:58:36;;;;;;;;;;;23.10;32.70;;;;;;5057856;28;19968;-58
2024/01/23 09:01:04;;;;;;;;;;;23.10;32.60;;;;;;5053574;28;19929;-58
2024/01/23 09:03:33;;;;;;;;;;;23.20;32.90;;;;;;5041841;28;19936;-57
2024/01/23 09:06:00;;;;;;;;;;;23.20;32.80;;;;;;5058969;28;20046;-59
2024/01/23 09:08:27;;;;;;;;;;;23.20;32.70;;;;;;5061730;28;20369;-58
2024/01/23 09:10:54;;;;;;;;;;;23.30;33.30;;;;;;5057822;28;19925;-58
2024/01/23 09:13:21;;;;;;;;;;;23.30;32.60;;;;;;5060088;28;19983;-58
2024/01/23 09:15:48;;;;;;;;;;;23.30;32.60;;;;;;5062433;28;19929;-57
2024/01/23 09:18:15;;;;;;;;;;;23.40;32.60;;;;;;5059678;28;19925;-58
2024/01/23 09:20:42;;;;;;;;;;;23.50;32.60;;;;;;5065341;28;19925;-58
2024/01/23 09:23:10;;;;;;;;;;;23.50;32.60;;;;;;5064668;28;19937;-57
2024/01/23 09:25:37;;;;;;;;;;;23.60;32.60;;;;;;5061065;28;19967;-57
2024/01/23 09:28:04;;;;;;;;;;;23.60;32.60;;;;;;5062104;28;19924;-59
2024/01/23 09:30:31;;;;;;;;;;;23.60;32.60;;;;;;5065274;28;19986;-57
2024/01/23 09:33:00;;;;;;;;;;;23.60;32.70;;;;;;5063290;28;19940;-59
2024/01/23 09:35:27;;;;;;;;;;;23.60;32.60;;;;;;5064980;28;19924;-59
2024/01/23 09:37:54;;;;;;;;;;;23.60;32.50;;;;;;5060582;28;20391;-59
2024/01/23 09:40:21;;;;;;;;;;;23.60;32.60;;;;;;5061431;28;19940;-59
2024/01/23 09:42:48;;;;;;;;;;;23.70;32.70;;;;;;5045799;28;19931;-58
2024/01/23 09:45:17;;;;;;;;;;;23.60;32.70;;;;;;5066414;28;19967;-58
2024/01/23 09:47:47;;;;;;;;;;;23.70;32.70;;;;;;5062864;28;20023;-59
2024/01/23 09:50:15;;;;;;;;;;;23.70;32.70;;;;;;5043341;28;19936;-58
2024/01/23 09:52:44;;;;;;;;;;;23.70;32.50;;;;;;5057787;28;19951;-59
2024/01/23 09:55:11;;;;;;;;;;;23.70;32.30;;;;;;5060864;28;20025;-59
2024/01/23 09:57:38;;;;;;;;;;;23.70;32.30;;;;;;5064140;28;20443;-58
2024/01/23 10:00:07;;;;;;;;;;;23.70;32.50;;;;;;5059488;28;19931;-59
2024/01/23 10:02:35;;;;;;;;;;;23.70;32.50;;;;;;5065070;28;19924;-59
2024/01/23 10:05:02;;;;;;;;;;;23.70;32.50;;;;;;5072240;28;19975;-60
2024/01/23 10:07:29;;;;;;;;;;;23.70;32.40;;;;;;5074261;28;19953;-59
2024/01/23 10:09:58;;;;;;;;;;;23.80;32.20;;;;;;5055078;28;20451;-59
2024/01/23 10:12:25;;;;;;;;;;;23.70;32.00;;;;;;5064074;28;19939;-59
2024/01/23 10:14:52;;;;;;;;;;;23.80;31.90;;;;;;5063207;28;19924;-59
2024/01/23 10:17:19;;;;;;;;;;;23.70;31.80;;;;;;5060989;28;19960;-61
2024/01/23 10:19:46;;;;;;;;;;;23.80;31.80;;;;;;5063674;28;19932;-59
2024/01/23 10:22:15;;;;;;;;;;;23.80;31.80;;;;;;5064445;28;19937;-60
2024/01/23 10:24:42;;;;;;;;;;;23.80;31.80;;;;;;5064967;28;19924;-59
2024/01/23 10:27:09;;;;;;;;;;;23.80;32.00;;;;;;5066394;28;19970;-59
2024/01/23 10:29:36;;;;;;;;;;;23.90;32.00;;;;;;5062718;28;20492;-59
2024/01/23 10:32:04;;;;;;;;;;;23.90;31.90;;;;;;5065668;28;19943;-60
2024/01/23 10:34:31;;;;;;;;;;;23.90;31.90;;;;;;5064227;28;20324;-60
2024/01/23 10:36:58;;;;;;;;;;;23.90;31.80;;;;;;5065001;28;20350;-57
2024/01/23 10:39:26;;;;;;;;;;;23.90;31.80;;;;;;5066071;28;20039;-57
2024/01/23 10:41:54;;;;;;;;;;;24.00;31.80;;;;;;5062399;28;19928;-58
2024/01/23 10:44:26;;;;;;;;;;;24.00;31.80;;;;;;5062296;28;20362;-58
2024/01/23 10:46:55;;;;;;;;;;;24.00;31.70;;;;;;5060644;28;19928;-57
2024/01/23 10:49:22;;;;;;;;;;;24.00;31.80;;;;;;5066171;28;19990;-57
2024/01/23 10:51:51;;;;;;;;;;;24.00;31.70;;;;;;5066783;28;19932;-57
2024/01/23 10:54:26;;;;;;;;;;;24.00;31.80;;;;;;5060674;28;20640;-57
2024/01/23 10:56:55;;;;;;;;;;;24.00;31.70;;;;;;5062555;28;20325;-60
2024/01/23 10:59:25;;;;;;;;;;;24.00;32.00;;;;;;5047357;28;19932;-60
2024/01/23 11:01:58;;;;;;;;;;;24.00;32.70;;;;;;5062866;28;20051;-58
2024/01/23 11:04:25;;;;;;;;;;;24.00;32.90;;;;;;5063278;28;19928;-57
2024/01/23 11:07:02;;;;;;;;;;;24.10;33.10;;;;;;5060826;28;20035;-58
2024/01/23 11:09:34;;;;;;;;;;;24.10;33.20;;;;;;5062443;28;20011;-56
2024/01/23 11:12:21;;;;;;;;;;;24.10;33.20;;;;;;5063630;28;19978;-56
2024/01/23 11:14:52;;;;;;;;;;;24.10;33.10;;;;;;5063790;28;20385;-56
2024/01/23 11:17:20;;;;;;;;;;;24.10;33.00;;;;;;5062313;28;20373;-55
2024/01/23 11:20:03;;;;;;;;;;;24.10;32.90;;;;;;5061731;28;19935;-57
2024/01/23 11:22:31;;;;;;;;;;;24.20;32.90;;;;;;5049924;28;20019;-57
2024/01/23 11:24:58;;;;;;;;;;;24.20;32.70;;;;;;5063298;28;20011;-58
2024/01/23 11:27:28;;;;;;;;;;;24.20;32.70;;;;;;5059673;28;19932;-58
2024/01/23 11:29:58;;;;;;;;;;;24.20;32.50;;;;;;5058843;28;20315;-58
2024/01/23 11:32:26;;;;;;;;;;;24.20;32.20;;;;;;5060652;28;19928;-57
2024/01/23 11:35:03;;;;;;;;;;;24.10;32.00;;;;;;5045538;28;20007;-58
2024/01/23 11:37:38;;;;;;;;;;;24.10;32.00;;;;;;5066637;28;19928;-59
2024/01/23 11:40:06;;;;;;;;;;;24.10;32.00;;;;;;5063210;28;19933;-59
2024/01/23 11:42:37;;;;;;;;;;;24.10;31.90;;;;;;5058276;28;20370;-59
2024/01/23 11:45:27;;;;;;;;;;;24.10;31.90;;;;;;5059756;28;19932;-59
2024/01/23 11:47:56;;;;;;;;;;;24.10;31.90;;;;;;5058673;28;19941;-60
2024/01/23 11:50:24;;;;;;;;;;;24.10;31.90;;;;;;5062799;28;20373;-59
2024/01/23 11:52:52;;;;;;;;;;;24.10;31.80;;;;;;5061675;28;19936;-58
2024/01/23 11:55:19;;;;;;;;;;;24.10;31.90;;;;;;5058535;28;20023;-58
2024/01/23 11:57:51;;;;;;;;;;;24.10;31.90;;;;;;5059179;28;20614;-59
2024/01/23 12:00:18;;;;;;;;;;;24.10;32.20;;;;;;5057346;28;20354;-58
2024/01/23 12:02:46;;;;;;;;;;;24.10;32.40;;;;;;5057913;28;19924;-59
2024/01/23 12:05:14;;;;;;;;;;;24.10;32.40;;;;;;5058504;28;20019;-59
2024/01/23 12:07:41;;;;;;;;;;;24.10;32.50;;;;;;5059799;28;19952;-58
2024/01/23 12:10:09;;;;;;;;;;;24.10;32.60;;;;;;5058559;28;19968;-58
2024/01/23 12:12:37;;;;;;;;;;;24.10;32.50;;;;;;5054681;28;20455;-59
2024/01/23 12:15:05;;;;;;;;;;;24.00;32.30;;;;;;5038617;28;20321;-58
2024/01/23 12:17:33;;;;;;;;;;;24.10;32.30;;;;;;5057781;28;19939;-56
2024/01/23 12:20:04;;;;;;;;;;;24.00;32.20;;;;;;5061668;28;19931;-59
2024/01/23 12:22:31;;;;;;;;;;;24.10;32.30;;;;;;5056723;28;20030;-59
2024/01/23 12:24:59;;;;;;;;;;;24.00;32.20;;;;;;5060833;28;19925;-59
2024/01/23 12:27:26;;;;;;;;;;;24.10;32.30;;;;;;5055116;28;20454;-59
2024/01/23 12:30:01;;;;;;;;;;;24.10;32.50;;;;;;5057922;28;20043;-59
2024/01/23 12:32:29;;;;;;;;;;;24.10;32.60;;;;;;5060532;28;20304;-59
2024/01/23 12:34:56;;;;;;;;;;;24.00;32.50;;;;;;5060553;28;20420;-59
2024/01/23 12:37:31;;;;;;;;;;;24.10;32.50;;;;;;5062298;28;19935;-58
2024/01/23 12:40:08;;;;;;;;;;;24.00;32.40;;;;;;5060185;28;19925;-59
2024/01/23 12:42:39;;;;;;;;;;;24.00;32.10;;;;;;5058086;28;19931;-59
2024/01/23 12:45:07;;;;;;;;;;;24.10;32.00;;;;;;5061090;28;19929;-59
2024/01/23 12:47:35;;;;;;;;;;;24.00;31.90;;;;;;5060025;28;19940;-60
2024/01/23 12:50:03;;;;;;;;;;;24.00;32.00;;;;;;5060610;28;19939;-59
2024/01/23 12:52:30;;;;;;;;;;;24.00;32.10;;;;;;5065735;28;19976;-60
2024/01/23 12:54:57;;;;;;;;;;;24.00;32.10;;;;;;5066443;28;20015;-59
2024/01/23 12:57:24;;;;;;;;;;;24.10;32.20;;;;;;5065044;28;20023;-59
2024/01/23 12:59:51;;;;;;;;;;;24.10;32.20;;;;;;5066393;28;19976;-59
2024/01/23 13:02:18;;;;;;;;;;;24.10;32.10;;;;;;5060873;28;21043;-58
2024/01/23 13:04:45;;;;;;;;;;;24.10;32.00;;;;;;5060544;28;19924;-59
2024/01/23 13:07:12;;;;;;;;;;;24.10;32.00;;;;;;5064738;28;20308;-61
2024/01/23 13:09:40;;;;;;;;;;;24.10;32.00;;;;;;5062072;28;19928;-60
2024/01/23 13:12:07;;;;;;;;;;;24.10;32.00;;;;;;5066111;28;19924;-60
2024/01/23 13:14:36;;;;;;;;;;;24.10;32.00;;;;;;5063313;28;19983;-60
2024/01/23 13:17:03;;;;;;;;;;;24.00;31.90;;;;;;5064029;28;19928;-60
2024/01/23 13:19:33;;;;;;;;;;;24.00;31.90;;;;;;5046504;28;19925;-60
2024/01/23 13:22:01;;;;;;;;;;;24.10;31.90;;;;;;5062809;28;20403;-59
2024/01/23 13:24:28;;;;;;;;;;;24.00;31.80;;;;;;5067393;28;21827;-59
2024/01/23 13:26:55;;;;;;;;;;;24.00;31.80;;;;;;5062631;28;20027;-58
2024/01/23 13:29:23;;;;;;;;;;;24.00;31.80;;;;;;5063283;28;19928;-61
2024/01/23 13:31:51;;;;;;;;;;;24.00;31.90;;;;;;5062203;28;20015;-60
2024/01/23 13:34:18;;;;;;;;;;;24.00;32.00;;;;;;5062419;28;19925;-59
2024/01/23 13:36:46;;;;;;;;;;;24.00;32.10;;;;;;5065021;28;19970;-60
2024/01/23 13:39:13;;;;;;;;;;;24.00;32.10;;;;;;5070796;28;20276;-61
2024/01/23 13:41:44;;;;;;;;;;;24.00;32.30;;;;;;5063531;28;19936;-60
2024/01/23 13:44:11;;;;;;;;;;;24.00;32.30;;;;;;5060924;28;19924;-60
2024/01/23 13:46:39;;;;;;;;;;;24.00;32.20;;;;;;5061235;28;19938;-60
2024/01/23 13:49:06;;;;;;;;;;;24.00;32.10;;;;;;5063372;28;19929;-61
2024/01/23 13:51:33;;;;;;;;;;;24.10;32.10;;;;;;5065370;28;19928;-60
2024/01/23 13:54:00;;;;;;;;;;;24.00;32.00;;;;;;5065911;28;19939;-61
2024/01/23 13:56:27;;;;;;;;;;;24.00;31.90;;;;;;5068128;28;19968;-60
2024/01/23 13:58:54;;;;;;;;;;;24.00;31.90;;;;;;5060750;28;19959;-58
2024/01/23 14:01:21;;;;;;;;;;;24.10;31.80;;;;;;5065739;28;19954;-59
2024/01/23 14:03:51;;;;;;;;;;;24.00;31.70;;;;;;5061476;28;19925;-59
2024/01/23 14:06:18;;;;;;;;;;;24.10;31.80;;;;;;5061898;28;19933;-58
2024/01/23 14:08:45;;;;;;;;;;;24.00;31.70;;;;;;5062623;28;19940;-58
2024/01/23 14:11:13;;;;;;;;;;;24.00;31.70;;;;;;5061630;28;19940;-58
2024/01/23 14:13:40;;;;;;;;;;;24.00;31.60;;;;;;5064139;28;19928;-59
2024/01/23 14:16:09;;;;;;;;;;;24.00;31.60;;;;;;5065064;28;19978;-59
2024/01/23 14:18:36;;;;;;;;;;;24.00;31.50;;;;;;5060455;28;19959;-58